sensor_id;sensor_type;location;lat;lon;timestamp;pressure;altitude;pressure_sealevel;temperature;humidity
26043;BME280;13818;52.156;5.382;2024-01-06T00:00:01;100140.03;;;5.77;100.00
26043;BME280;13818;52.156;5.382;2024-01-06T00:02:28;100145.38;;;5.75;100.00
26043;BME280;13818;52.156;5.382;2024-01-06T00:04:54;100144.56;;;5.73;100.00
26043;BME280;13818;52.156;5.382;2024-01-06T00:07:20;100146.38;;;5.71;100.00
26043;BME280;13818;52.156;5.382;2024-01-06T00:09:47;100148.47;;;5.63;100.00
26043;BME280;13818;52.156;5.382;2024-01-06T00:12:13;100151.19;;;5.61;100.00
26043;BME280;13818;52.156;5.382;2024-01-06T00:14:41;100156.78;;;5.52;100.00
26043;BME280;13818;52.156;5.382;2024-01-06T00:17:10;100156.91;;;5.49;100.00
26043;BME280;13818;52.156;5.382;2024-01-06T00:19:36;100174.28;;;5.56;100.00
26043;BME280;13818;52.156;5.382;2024-01-06T00:22:03;100178.59;;;5.59;100.00
26043;BME280;13818;52.156;5.382;2024-01-06T00:24:30;100176.22;;;5.51;100.00
26043;BME280;13818;52.156;5.382;2024-01-06T00:26:56;100176.25;;;5.49;100.00
26043;BME280;13818;52.156;5.382;2024-01-06T00:29:23;100174.50;;;5.50;100.00
26043;BME280;13818;52.156;5.382;2024-01-06T00:31:51;100178.09;;;5.47;100.00
26043;BME280;13818;52.156;5.382;2024-01-06T00:34:17;100181.66;;;5.46;100.00
26043;BME280;13818;52.156;5.382;2024-01-06T00:36:43;100184.09;;;5.52;100.00
26043;BME280;13818;52.156;5.382;2024-01-06T00:39:10;100179.56;;;5.56;100.00
26043;BME280;13818;52.156;5.382;2024-01-06T00:41:36;100182.16;;;5.58;100.00
26043;BME280;13818;52.156;5.382;2024-01-06T00:44:03;100185.81;;;5.53;100.00
26043;BME280;13818;52.156;5.382;2024-01-06T00:46:29;100192.78;;;5.56;100.00
26043;BME280;13818;52.156;5.382;2024-01-06T00:48:57;100190.13;;;5.56;100.00
26043;BME280;13818;52.156;5.382;2024-01-06T00:51:24;100190.00;;;5.59;100.00
26043;BME280;13818;52.156;5.382;2024-01-06T00:53:50;100187.75;;;5.48;100.00
26043;BME280;13818;52.156;5.382;2024-01-06T00:56:17;100189.81;;;5.40;100.00
26043;BME280;13818;52.156;5.382;2024-01-06T00:58:43;100197.19;;;5.30;100.00
26043;BME280;13818;52.156;5.382;2024-01-06T01:01:10;100188.41;;;5.30;100.00
26043;BME280;13818;52.156;5.382;2024-01-06T01:03:36;100193.75;;;5.28;100.00
26043;BME280;13818;52.156;5.382;2024-01-06T01:06:04;100193.19;;;5.18;100.00
26043;BME280;13818;52.156;5.382;2024-01-06T01:08:31;100198.56;;;5.15;100.00
26043;BME280;13818;52.156;5.382;2024-01-06T01:10:57;100198.16;;;5.28;100.00
26043;BME280;13818;52.156;5.382;2024-01-06T01:13:23;100210.34;;;5.32;100.00
26043;BME280;13818;52.156;5.382;2024-01-06T01:15:50;100213.19;;;5.26;100.00
26043;BME280;13818;52.156;5.382;2024-01-06T01:18:17;100216.09;;;5.18;100.00
26043;BME280;13818;52.156;5.382;2024-01-06T01:20:43;100224.84;;;5.20;100.00
26043;BME280;13818;52.156;5.382;2024-01-06T01:23:11;100225.88;;;5.16;100.00
26043;BME280;13818;52.156;5.382;2024-01-06T01:25:38;100232.84;;;5.17;100.00
26043;BME280;13818;52.156;5.382;2024-01-06T01:28:04;100238.47;;;5.08;100.00
26043;BME280;13818;52.156;5.382;2024-01-06T01:30:31;100232.59;;;4.98;100.00
26043;BME280;13818;52.156;5.382;2024-01-06T01:32:58;100252.06;;;4.95;100.00
26043;BME280;13818;52.156;5.382;2024-01-06T01:35:24;100255.88;;;4.86;100.00
26043;BME280;13818;52.156;5.382;2024-01-06T01:37:51;100252.44;;;4.84;100.00
26043;BME280;13818;52.156;5.382;2024-01-06T01:40:19;100256.63;;;4.90;100.00
26043;BME280;13818;52.156;5.382;2024-01-06T01:42:45;100254.16;;;4.85;100.00
26043;BME280;13818;52.156;5.382;2024-01-06T01:45:11;100264.81;;;4.82;100.00
26043;BME280;13818;52.156;5.382;2024-01-06T01:47:38;100271.81;;;4.83;100.00
26043;BME280;13818;52.156;5.382;2024-01-06T01:50:06;100272.84;;;4.78;100.00
26043;BME280;13818;52.156;5.382;2024-01-06T01:52:34;100272.00;;;4.77;100.00
26043;BME280;13818;52.156;5.382;2024-01-06T01:55:02;100278.13;;;4.78;100.00
26043;BME280;13818;52.156;5.382;2024-01-06T01:57:30;100279.03;;;4.78;100.00
26043;BME280;13818;52.156;5.382;2024-01-06T01:59:57;100282.50;;;4.79;100.00
26043;BME280;13818;52.156;5.382;2024-01-06T02:02:23;100277.22;;;4.79;100.00
26043;BME280;13818;52.156;5.382;2024-01-06T02:04:50;100286.22;;;4.73;100.00
26043;BME280;13818;52.156;5.382;2024-01-06T02:07:16;100281.91;;;4.70;100.00
26043;BME280;13818;52.156;5.382;2024-01-06T02:09:43;100291.41;;;4.76;100.00
26043;BME280;13818;52.156;5.382;2024-01-06T02:12:09;100291.31;;;4.79;100.00
26043;BME280;13818;52.156;5.382;2024-01-06T02:14:37;100301.19;;;4.72;100.00
26043;BME280;13818;52.156;5.382;2024-01-06T02:17:03;100297.56;;;4.77;100.00
26043;BME280;13818;52.156;5.382;2024-01-06T02:19:30;100292.16;;;4.80;100.00
26043;BME280;13818;52.156;5.382;2024-01-06T02:21:58;100300.31;;;4.72;100.00
26043;BME280;13818;52.156;5.382;2024-01-06T02:24:24;100306.38;;;4.76;100.00
26043;BME280;13818;52.156;5.382;2024-01-06T02:26:50;100307.47;;;4.68;100.00
26043;BME280;13818;52.156;5.382;2024-01-06T02:29:17;100303.69;;;4.77;100.00
26043;BME280;13818;52.156;5.382;2024-01-06T02:31:44;100309.81;;;4.78;100.00
26043;BME280;13818;52.156;5.382;2024-01-06T02:34:10;100304.09;;;4.63;100.00
26043;BME280;13818;52.156;5.382;2024-01-06T02:36:36;100314.50;;;4.69;100.00
26043;BME280;13818;52.156;5.382;2024-01-06T02:39:04;100315.44;;;4.67;100.00
26043;BME280;13818;52.156;5.382;2024-01-06T02:41:31;100313.41;;;4.77;100.00
26043;BME280;13818;52.156;5.382;2024-01-06T02:43:58;100328.41;;;4.75;100.00
26043;BME280;13818;52.156;5.382;2024-01-06T02:46:24;100328.28;;;4.79;100.00
26043;BME280;13818;52.156;5.382;2024-01-06T02:48:50;100339.81;;;4.75;100.00
26043;BME280;13818;52.156;5.382;2024-01-06T02:51:17;100344.16;;;4.78;100.00
26043;BME280;13818;52.156;5.382;2024-01-06T02:53:43;100342.69;;;4.67;100.00
26043;BME280;13818;52.156;5.382;2024-01-06T02:56:11;100339.88;;;4.73;100.00
26043;BME280;13818;52.156;5.382;2024-01-06T02:58:38;100347.97;;;4.67;100.00
26043;BME280;13818;52.156;5.382;2024-01-06T03:01:05;100354.03;;;4.71;100.00
26043;BME280;13818;52.156;5.382;2024-01-06T03:03:31;100356.63;;;4.72;100.00
26043;BME280;13818;52.156;5.382;2024-01-06T03:05:58;100355.13;;;4.64;100.00
26043;BME280;13818;52.156;5.382;2024-01-06T03:08:25;100347.19;;;4.64;100.00
26043;BME280;13818;52.156;5.382;2024-01-06T03:10:51;100356.13;;;4.60;100.00
26043;BME280;13818;52.156;5.382;2024-01-06T03:13:19;100357.81;;;4.62;100.00
26043;BME280;13818;52.156;5.382;2024-01-06T03:15:46;100359.53;;;4.63;100.00
26043;BME280;13818;52.156;5.382;2024-01-06T03:18:12;100345.38;;;4.66;100.00
26043;BME280;13818;52.156;5.382;2024-01-06T03:20:39;100365.72;;;4.62;100.00
26043;BME280;13818;52.156;5.382;2024-01-06T03:23:05;100370.94;;;4.65;100.00
26043;BME280;13818;52.156;5.382;2024-01-06T03:25:32;100372.78;;;4.62;100.00
26043;BME280;13818;52.156;5.382;2024-01-06T03:27:58;100373.88;;;4.54;100.00
26043;BME280;13818;52.156;5.382;2024-01-06T03:30:26;100380.72;;;4.62;100.00
26043;BME280;13818;52.156;5.382;2024-01-06T03:32:52;100375.38;;;4.63;100.00
26043;BME280;13818;52.156;5.382;2024-01-06T03:35:19;100384.13;;;4.65;100.00
26043;BME280;13818;52.156;5.382;2024-01-06T03:37:45;100394.53;;;4.70;100.00
26043;BME280;13818;52.156;5.382;2024-01-06T03:40:12;100397.97;;;4.73;100.00
26043;BME280;13818;52.156;5.382;2024-01-06T03:42:39;100404.97;;;4.75;100.00
26043;BME280;13818;52.156;5.382;2024-01-06T03:45:06;100407.63;;;4.75;100.00
26043;BME280;13818;52.156;5.382;2024-01-06T03:47:34;100406.06;;;4.67;100.00
26043;BME280;13818;52.156;5.382;2024-01-06T03:50:00;100423.50;;;4.73;100.00
26043;BME280;13818;52.156;5.382;2024-01-06T03:52:27;100421.56;;;4.80;100.00
26043;BME280;13818;52.156;5.382;2024-01-06T03:54:53;100424.38;;;4.73;100.00
26043;BME280;13818;52.156;5.382;2024-01-06T03:57:19;100425.31;;;4.71;100.00
26043;BME280;13818;52.156;5.382;2024-01-06T03:59:46;100433.63;;;4.57;100.00
26043;BME280;13818;52.156;5.382;2024-01-06T04:02:12;100434.47;;;4.59;100.00
26043;BME280;13818;52.156;5.382;2024-01-06T04:04:40;100432.91;;;4.52;100.00
26043;BME280;13818;52.156;5.382;2024-01-06T04:07:07;100433.91;;;4.48;100.00
26043;BME280;13818;52.156;5.382;2024-01-06T04:09:33;100442.63;;;4.50;100.00
26043;BME280;13818;52.156;5.382;2024-01-06T04:12:00;100440.97;;;4.46;100.00
26043;BME280;13818;52.156;5.382;2024-01-06T04:14:27;100449.00;;;4.41;100.00
26043;BME280;13818;52.156;5.382;2024-01-06T04:16:53;100441.66;;;4.52;100.00
26043;BME280;13818;52.156;5.382;2024-01-06T04:19:21;100450.69;;;4.45;100.00
26043;BME280;13818;52.156;5.382;2024-01-06T04:21:49;100447.91;;;4.50;100.00
26043;BME280;13818;52.156;5.382;2024-01-06T04:24:16;100447.09;;;4.48;100.00
26043;BME280;13818;52.156;5.382;2024-01-06T04:26:42;100446.81;;;4.57;100.00
26043;BME280;13818;52.156;5.382;2024-01-06T04:29:10;100439.97;;;4.51;100.00
26043;BME280;13818;52.156;5.382;2024-01-06T04:31:37;100439.25;;;4.45;100.00
26043;BME280;13818;52.156;5.382;2024-01-06T04:34:03;100451.53;;;4.46;100.00
26043;BME280;13818;52.156;5.382;2024-01-06T04:36:29;100462.19;;;4.43;100.00
26043;BME280;13818;52.156;5.382;2024-01-06T04:38:57;100455.06;;;4.45;100.00
26043;BME280;13818;52.156;5.382;2024-01-06T04:41:24;100465.78;;;4.38;100.00
26043;BME280;13818;52.156;5.382;2024-01-06T04:43:50;100463.50;;;4.24;100.00
26043;BME280;13818;52.156;5.382;2024-01-06T04:46:17;100467.16;;;4.20;100.00
26043;BME280;13818;52.156;5.382;2024-01-06T04:48:43;100462.56;;;4.27;100.00
26043;BME280;13818;52.156;5.382;2024-01-06T04:51:10;100471.31;;;4.29;100.00
26043;BME280;13818;52.156;5.382;2024-01-06T04:53:36;100467.03;;;4.25;100.00
26043;BME280;13818;52.156;5.382;2024-01-06T04:56:04;100470.78;;;4.15;100.00
26043;BME280;13818;52.156;5.382;2024-01-06T04:58:31;100473.28;;;4.21;100.00
26043;BME280;13818;52.156;5.382;2024-01-06T05:00:57;100481.47;;;4.10;100.00
26043;BME280;13818;52.156;5.382;2024-01-06T05:03:24;100485.09;;;4.06;100.00
26043;BME280;13818;52.156;5.382;2024-01-06T05:05:50;100478.94;;;4.05;100.00
26043;BME280;13818;52.156;5.382;2024-01-06T05:08:17;100484.88;;;4.15;100.00
26043;BME280;13818;52.156;5.382;2024-01-06T05:10:44;100482.53;;;4.03;100.00
26043;BME280;13818;52.156;5.382;2024-01-06T05:13:13;100487.84;;;4.01;100.00
26043;BME280;13818;52.156;5.382;2024-01-06T05:15:39;100490.50;;;4.01;100.00
26043;BME280;13818;52.156;5.382;2024-01-06T05:18:06;100493.03;;;4.04;100.00
26043;BME280;13818;52.156;5.382;2024-01-06T05:20:32;100501.69;;;4.10;100.00
26043;BME280;13818;52.156;5.382;2024-01-06T05:22:59;100507.06;;;4.06;100.00
26043;BME280;13818;52.156;5.382;2024-01-06T05:25:25;100504.53;;;4.02;100.00
26043;BME280;13818;52.156;5.382;2024-01-06T05:27:52;100515.97;;;4.02;100.00
26043;BME280;13818;52.156;5.382;2024-01-06T05:30:20;100522.09;;;4.03;100.00
26043;BME280;13818;52.156;5.382;2024-01-06T05:32:46;100516.16;;;3.93;100.00
26043;BME280;13818;52.156;5.382;2024-01-06T05:35:13;100525.81;;;3.94;100.00
26043;BME280;13818;52.156;5.382;2024-01-06T05:37:40;100522.44;;;3.89;100.00
26043;BME280;13818;52.156;5.382;2024-01-06T05:40:07;100522.31;;;3.94;100.00
26043;BME280;13818;52.156;5.382;2024-01-06T05:42:34;100523.19;;;3.94;100.00
26043;BME280;13818;52.156;5.382;2024-01-06T05:45:00;100530.28;;;3.90;100.00
26043;BME280;13818;52.156;5.382;2024-01-06T05:47:28;100533.59;;;4.00;100.00
26043;BME280;13818;52.156;5.382;2024-01-06T05:49:55;100542.53;;;3.95;100.00
26043;BME280;13818;52.156;5.382;2024-01-06T05:52:21;100551.44;;;3.89;100.00
26043;BME280;13818;52.156;5.382;2024-01-06T05:54:47;100542.63;;;3.90;100.00
26043;BME280;13818;52.156;5.382;2024-01-06T05:57:14;100543.59;;;3.86;100.00
26043;BME280;13818;52.156;5.382;2024-01-06T05:59:40;100551.31;;;3.94;100.00
26043;BME280;13818;52.156;5.382;2024-01-06T06:02:07;100547.06;;;3.88;100.00
26043;BME280;13818;52.156;5.382;2024-01-06T06:04:35;100545.31;;;3.87;100.00
26043;BME280;13818;52.156;5.382;2024-01-06T06:07:02;100551.50;;;3.86;100.00
26043;BME280;13818;52.156;5.382;2024-01-06T06:09:28;100561.13;;;3.88;100.00
26043;BME280;13818;52.156;5.382;2024-01-06T06:11:55;100565.66;;;3.82;100.00
26043;BME280;13818;52.156;5.382;2024-01-06T06:14:21;100563.84;;;3.84;100.00
26043;BME280;13818;52.156;5.382;2024-01-06T06:16:48;100570.81;;;3.86;100.00
26043;BME280;13818;52.156;5.382;2024-01-06T06:19:14;100583.16;;;3.84;100.00
26043;BME280;13818;52.156;5.382;2024-01-06T06:21:44;100584.09;;;3.83;100.00
26043;BME280;13818;52.156;5.382;2024-01-06T06:24:10;100577.13;;;3.79;100.00
26043;BME280;13818;52.156;5.382;2024-01-06T06:26:37;100586.84;;;3.77;100.00
26043;BME280;13818;52.156;5.382;2024-01-06T06:29:03;100586.94;;;3.72;100.00
26043;BME280;13818;52.156;5.382;2024-01-06T06:31:29;100581.63;;;3.74;100.00
26043;BME280;13818;52.156;5.382;2024-01-06T06:33:56;100595.88;;;3.65;100.00
26043;BME280;13818;52.156;5.382;2024-01-06T06:36:22;100598.47;;;3.67;100.00
26043;BME280;13818;52.156;5.382;2024-01-06T06:38:50;100606.50;;;3.62;100.00
26043;BME280;13818;52.156;5.382;2024-01-06T06:41:16;100607.38;;;3.63;100.00
26043;BME280;13818;52.156;5.382;2024-01-06T06:43:45;100614.38;;;3.64;100.00
26043;BME280;13818;52.156;5.382;2024-01-06T06:46:11;100617.00;;;3.64;100.00
26043;BME280;13818;52.156;5.382;2024-01-06T06:48:37;100611.81;;;3.59;100.00
26043;BME280;13818;52.156;5.382;2024-01-06T06:51:05;100626.81;;;3.57;100.00
26043;BME280;13818;52.156;5.382;2024-01-06T06:53:31;100628.50;;;3.61;100.00
26043;BME280;13818;52.156;5.382;2024-01-06T06:55:59;100629.41;;;3.58;100.00
26043;BME280;13818;52.156;5.382;2024-01-06T06:58:26;100641.59;;;3.64;100.00
26043;BME280;13818;52.156;5.382;2024-01-06T07:00:52;100652.03;;;3.69;100.00
26043;BME280;13818;52.156;5.382;2024-01-06T07:03:19;100645.00;;;3.71;100.00
26043;BME280;13818;52.156;5.382;2024-01-06T07:05:46;100642.41;;;3.68;100.00
26043;BME280;13818;52.156;5.382;2024-01-06T07:08:12;100656.44;;;3.70;100.00
26043;BME280;13818;52.156;5.382;2024-01-06T07:10:40;100657.34;;;3.67;100.00
26043;BME280;13818;52.156;5.382;2024-01-06T07:13:08;100665.38;;;3.61;100.00
26043;BME280;13818;52.156;5.382;2024-01-06T07:15:34;100672.47;;;3.57;100.00
26043;BME280;13818;52.156;5.382;2024-01-06T07:18:00;100671.47;;;3.65;100.00
26043;BME280;13818;52.156;5.382;2024-01-06T07:20:27;100672.34;;;3.64;100.00
26043;BME280;13818;52.156;5.382;2024-01-06T07:22:53;100676.78;;;3.63;100.00
26043;BME280;13818;52.156;5.382;2024-01-06T07:25:20;100675.97;;;3.58;100.00
26043;BME280;13818;52.156;5.382;2024-01-06T07:27:46;100690.88;;;3.61;100.00
26043;BME280;13818;52.156;5.382;2024-01-06T07:30:15;100686.41;;;3.64;100.00
26043;BME280;13818;52.156;5.382;2024-01-06T07:32:41;100690.72;;;3.68;100.00
26043;BME280;13818;52.156;5.382;2024-01-06T07:35:08;100679.25;;;3.69;100.00
26043;BME280;13818;52.156;5.382;2024-01-06T07:37:34;100681.09;;;3.67;100.00
26043;BME280;13818;52.156;5.382;2024-01-06T07:40:01;100693.25;;;3.74;100.00
26043;BME280;13818;52.156;5.382;2024-01-06T07:42:27;100681.13;;;3.64;100.00
26043;BME280;13818;52.156;5.382;2024-01-06T07:44:54;100702.22;;;3.66;100.00
26043;BME280;13818;52.156;5.382;2024-01-06T07:47:22;100719.72;;;3.68;100.00
26043;BME280;13818;52.156;5.382;2024-01-06T07:49:49;100717.13;;;3.65;100.00
26043;BME280;13818;52.156;5.382;2024-01-06T07:52:18;100713.56;;;3.68;100.00
26043;BME280;13818;52.156;5.382;2024-01-06T07:54:44;100723.13;;;3.73;100.00
26043;BME280;13818;52.156;5.382;2024-01-06T07:57:11;100732.91;;;3.67;100.00
26043;BME280;13818;52.156;5.382;2024-01-06T07:59:38;100738.22;;;3.65;100.00
26043;BME280;13818;52.156;5.382;2024-01-06T08:02:05;100728.53;;;3.67;100.00
26043;BME280;13818;52.156;5.382;2024-01-06T08:04:33;100729.34;;;3.71;100.00
26043;BME280;13818;52.156;5.382;2024-01-06T08:07:00;100737.41;;;3.63;100.00
26043;BME280;13818;52.156;5.382;2024-01-06T08:09:26;100753.97;;;3.70;100.00
26043;BME280;13818;52.156;5.382;2024-01-06T08:11:53;100758.50;;;3.62;100.00
26043;BME280;13818;52.156;5.382;2024-01-06T08:14:19;100756.72;;;3.64;100.00
26043;BME280;13818;52.156;5.382;2024-01-06T08:16:46;100761.06;;;3.66;100.00
26043;BME280;13818;52.156;5.382;2024-01-06T08:19:12;100760.09;;;3.72;100.00
26043;BME280;13818;52.156;5.382;2024-01-06T08:21:40;100767.88;;;3.77;100.00
26043;BME280;13818;52.156;5.382;2024-01-06T08:24:06;100758.34;;;3.71;100.00
26043;BME280;13818;52.156;5.382;2024-01-06T08:26:33;100751.25;;;3.73;100.00
26043;BME280;13818;52.156;5.382;2024-01-06T08:28:59;100772.38;;;3.71;100.00
26043;BME280;13818;52.156;5.382;2024-01-06T08:31:26;100775.00;;;3.71;100.00
26043;BME280;13818;52.156;5.382;2024-01-06T08:33:52;100780.28;;;3.71;100.00
26043;BME280;13818;52.156;5.382;2024-01-06T08:36:19;100780.16;;;3.78;100.00
26043;BME280;13818;52.156;5.382;2024-01-06T08:38:48;100790.59;;;3.84;100.00
26043;BME280;13818;52.156;5.382;2024-01-06T08:41:14;100783.50;;;3.87;100.00
26043;BME280;13818;52.156;5.382;2024-01-06T08:43:41;100785.25;;;3.88;100.00
26043;BME280;13818;52.156;5.382;2024-01-06T08:46:07;100800.03;;;3.97;100.00
26043;BME280;13818;52.156;5.382;2024-01-06T08:48:34;100790.53;;;3.88;100.00
26043;BME280;13818;52.156;5.382;2024-01-06T08:51:00;100804.41;;;3.97;100.00
26043;BME280;13818;52.156;5.382;2024-01-06T08:53:27;100801.94;;;3.89;100.00
26043;BME280;13818;52.156;5.382;2024-01-06T08:55:54;100814.88;;;4.01;100.00
26043;BME280;13818;52.156;5.382;2024-01-06T08:58:21;100822.81;;;4.01;100.00
26043;BME280;13818;52.156;5.382;2024-01-06T09:00:47;100817.50;;;4.03;100.00
26043;BME280;13818;52.156;5.382;2024-01-06T09:03:15;100830.59;;;4.07;100.00
26043;BME280;13818;52.156;5.382;2024-01-06T09:05:42;100821.63;;;4.15;100.00
26043;BME280;13818;52.156;5.382;2024-01-06T09:08:08;100840.84;;;4.23;100.00
26043;BME280;13818;52.156;5.382;2024-01-06T09:10:35;100837.34;;;4.22;100.00
26043;BME280;13818;52.156;5.382;2024-01-06T09:13:03;100849.72;;;4.19;100.00
26043;BME280;13818;52.156;5.382;2024-01-06T09:15:29;100847.78;;;4.27;100.00
26043;BME280;13818;52.156;5.382;2024-01-06T09:17:57;100850.81;;;4.07;100.00
26043;BME280;13818;52.156;5.382;2024-01-06T09:20:23;100854.19;;;4.15;100.00
26043;BME280;13818;52.156;5.382;2024-01-06T09:22:50;100848.75;;;4.23;100.00
26043;BME280;13818;52.156;5.382;2024-01-06T09:25:17;100864.59;;;4.23;100.00
26043;BME280;13818;52.156;5.382;2024-01-06T09:27:43;100864.75;;;4.15;100.00
26043;BME280;13818;52.156;5.382;2024-01-06T09:30:11;100863.63;;;4.27;100.00
26043;BME280;13818;52.156;5.382;2024-01-06T09:32:38;100875.88;;;4.30;100.00
26043;BME280;13818;52.156;5.382;2024-01-06T09:35:05;100871.13;;;4.47;100.00
26043;BME280;13818;52.156;5.382;2024-01-06T09:37:32;100871.19;;;4.46;100.00
26043;BME280;13818;52.156;5.382;2024-01-06T09:39:58;100870.19;;;4.51;100.00
26043;BME280;13818;52.156;5.382;2024-01-06T09:42:25;100887.75;;;4.54;100.00
26043;BME280;13818;52.156;5.382;2024-01-06T09:44:51;100894.72;;;4.56;100.00
26043;BME280;13818;52.156;5.382;2024-01-06T09:47:22;100889.34;;;4.61;100.00
26043;BME280;13818;52.156;5.382;2024-01-06T09:49:49;100892.66;;;4.71;100.00
26043;BME280;13818;52.156;5.382;2024-01-06T09:52:22;100898.91;;;4.67;100.00
26043;BME280;13818;52.156;5.382;2024-01-06T09:54:52;100910.34;;;4.67;100.00
26043;BME280;13818;52.156;5.382;2024-01-06T09:57:19;100900.66;;;4.66;100.00
26043;BME280;13818;52.156;5.382;2024-01-06T09:59:46;100907.78;;;4.64;100.00
26043;BME280;13818;52.156;5.382;2024-01-06T10:02:15;100902.38;;;4.69;100.00
26043;BME280;13818;52.156;5.382;2024-01-06T10:04:43;100910.44;;;4.63;100.00
26043;BME280;13818;52.156;5.382;2024-01-06T10:07:09;100913.94;;;4.63;100.00
26043;BME280;13818;52.156;5.382;2024-01-06T10:09:37;100927.34;;;4.54;100.00
26043;BME280;13818;52.156;5.382;2024-01-06T10:12:05;100921.91;;;4.60;100.00
26043;BME280;13818;52.156;5.382;2024-01-06T10:14:31;100929.81;;;4.62;100.00
26043;BME280;13818;52.156;5.382;2024-01-06T10:16:58;100940.38;;;4.60;100.00
26043;BME280;13818;52.156;5.382;2024-01-06T10:19:25;100922.72;;;4.65;100.00
26043;BME280;13818;52.156;5.382;2024-01-06T10:21:53;100928.34;;;4.47;100.00
26043;BME280;13818;52.156;5.382;2024-01-06T10:24:19;100938.72;;;4.56;100.00
26043;BME280;13818;52.156;5.382;2024-01-06T10:26:46;100936.81;;;4.64;100.00
26043;BME280;13818;52.156;5.382;2024-01-06T10:29:13;100950.94;;;4.62;100.00
26043;BME280;13818;52.156;5.382;2024-01-06T10:31:39;100943.88;;;4.62;100.00
26043;BME280;13818;52.156;5.382;2024-01-06T10:34:06;100950.94;;;4.62;100.00
26043;BME280;13818;52.156;5.382;2024-01-06T10:36:33;100954.41;;;4.64;100.00
26043;BME280;13818;52.156;5.382;2024-01-06T10:39:02;100963.34;;;4.58;100.00
26043;BME280;13818;52.156;5.382;2024-01-06T10:41:30;100953.63;;;4.59;100.00
26043;BME280;13818;52.156;5.382;2024-01-06T10:43:57;100964.16;;;4.60;100.00
26043;BME280;13818;52.156;5.382;2024-01-06T10:46:27;100966.94;;;4.54;100.00
26043;BME280;13818;52.156;5.382;2024-01-06T10:48:55;100968.66;;;4.56;100.00
26043;BME280;13818;52.156;5.382;2024-01-06T10:51:23;100962.47;;;4.56;100.00
26043;BME280;13818;52.156;5.382;2024-01-06T10:53:51;100956.22;;;4.62;100.00
26043;BME280;13818;52.156;5.382;2024-01-06T10:56:22;100949.81;;;4.73;100.00
26043;BME280;13818;52.156;5.382;2024-01-06T10:58:49;100957.84;;;4.67;100.00
26043;BME280;13818;52.156;5.382;2024-01-06T11:01:20;100966.50;;;4.76;100.00
26043;BME280;13818;52.156;5.382;2024-01-06T11:03:47;100965.63;;;4.75;100.00
26043;BME280;13818;52.156;5.382;2024-01-06T11:06:14;100967.41;;;4.75;100.00
26043;BME280;13818;52.156;5.382;2024-01-06T11:08:48;100969.16;;;4.76;100.00
26043;BME280;13818;52.156;5.382;2024-01-06T11:11:16;100977.06;;;4.76;100.00
26043;BME280;13818;52.156;5.382;2024-01-06T11:13:46;100982.41;;;4.74;100.00
26043;BME280;13818;52.156;5.382;2024-01-06T11:16:33;100986.91;;;4.67;100.00
26043;BME280;13818;52.156;5.382;2024-01-06T11:18:59;100979.75;;;4.74;100.00
26043;BME280;13818;52.156;5.382;2024-01-06T11:21:26;100971.69;;;4.80;100.00
26043;BME280;13818;52.156;5.382;2024-01-06T11:24:14;100973.66;;;4.70;100.00
26043;BME280;13818;52.156;5.382;2024-01-06T11:26:43;100984.19;;;4.72;100.00
26043;BME280;13818;52.156;5.382;2024-01-06T11:29:11;100985.69;;;4.84;100.00
26043;BME280;13818;52.156;5.382;2024-01-06T11:31:38;100980.44;;;4.82;100.00
26043;BME280;13818;52.156;5.382;2024-01-06T11:34:13;100976.31;;;4.70;100.00
26043;BME280;13818;52.156;5.382;2024-01-06T11:36:43;100990.28;;;4.76;100.00
26043;BME280;13818;52.156;5.382;2024-01-06T11:39:33;100990.44;;;4.68;100.00
26043;BME280;13818;52.156;5.382;2024-01-06T11:42:00;100985.06;;;4.71;100.00
26043;BME280;13818;52.156;5.382;2024-01-06T11:44:28;100989.44;;;4.73;100.00
26043;BME280;13818;52.156;5.382;2024-01-06T11:46:56;100984.22;;;4.70;100.00
26043;BME280;13818;52.156;5.382;2024-01-06T11:49:26;100980.69;;;4.70;100.00
26043;BME280;13818;52.156;5.382;2024-01-06T11:51:54;100976.22;;;4.73;100.00
26043;BME280;13818;52.156;5.382;2024-01-06T11:54:20;100988.56;;;4.71;100.00
26043;BME280;13818;52.156;5.382;2024-01-06T11:56:48;100990.34;;;4.71;100.00
26043;BME280;13818;52.156;5.382;2024-01-06T11:59:14;100993.22;;;4.59;100.00
26043;BME280;13818;52.156;5.382;2024-01-06T12:01:42;100985.34;;;4.57;100.00
26043;BME280;13818;52.156;5.382;2024-01-06T12:04:13;101006.31;;;4.65;100.00
26043;BME280;13818;52.156;5.382;2024-01-06T12:06:40;101001.22;;;4.55;100.00
26043;BME280;13818;52.156;5.382;2024-01-06T12:09:08;100986.31;;;4.53;100.00
26043;BME280;13818;52.156;5.382;2024-01-06T12:11:35;100984.63;;;4.47;100.00
26043;BME280;13818;52.156;5.382;2024-01-06T12:14:02;100988.19;;;4.46;100.00
26043;BME280;13818;52.156;5.382;2024-01-06T12:16:29;100985.41;;;4.52;100.00
26043;BME280;13818;52.156;5.382;2024-01-06T12:18:58;100994.16;;;4.56;100.00
26043;BME280;13818;52.156;5.382;2024-01-06T12:21:26;100993.34;;;4.52;100.00
26043;BME280;13818;52.156;5.382;2024-01-06T12:23:52;100999.44;;;4.56;100.00
26043;BME280;13818;52.156;5.382;2024-01-06T12:26:19;100994.19;;;4.54;100.00
26043;BME280;13818;52.156;5.382;2024-01-06T12:28:46;101000.41;;;4.52;100.00
26043;BME280;13818;52.156;5.382;2024-01-06T12:31:12;101015.34;;;4.53;100.00
26043;BME280;13818;52.156;5.382;2024-01-06T12:33:40;101003.22;;;4.43;100.00
26043;BME280;13818;52.156;5.382;2024-01-06T12:36:08;101014.63;;;4.43;100.00
26043;BME280;13818;52.156;5.382;2024-01-06T12:38:36;101013.84;;;4.38;100.00
26043;BME280;13818;52.156;5.382;2024-01-06T12:41:03;101008.56;;;4.38;100.00
26043;BME280;13818;52.156;5.382;2024-01-06T12:43:30;101008.56;;;4.38;100.00
26043;BME280;13818;52.156;5.382;2024-01-06T12:45:56;101012.06;;;4.40;100.00
26043;BME280;13818;52.156;5.382;2024-01-06T12:48:23;101013.81;;;4.39;100.00